sensor_id;sensor_type;location;lat;lon;timestamp;P1;durP1;ratioP1;P2;durP2;ratioP2
1402;SDS011;696;48.546;9.896;2022-10-24T00:01:28;14.35;;;2.63;;
1402;SDS011;696;48.546;9.896;2022-10-24T00:03:54;9.38;;;2.25;;
1402;SDS011;696;48.546;9.896;2022-10-24T00:06:19;8.35;;;1.92;;
1402;SDS011;696;48.546;9.896;2022-10-24T00:08:45;6.35;;;2.30;;
1402;SDS011;696;48.546;9.896;2022-10-24T00:11:15;7.28;;;2.03;;
1402;SDS011;696;48.546;9.896;2022-10-24T00:13:45;4.13;;;1.75;;
1402;SDS011;696;48.546;9.896;2022-10-24T00:16:11;9.75;;;2.22;;
1402;SDS011;696;48.546;9.896;2022-10-24T00:18:37;9.40;;;2.63;;
1402;SDS011;696;48.546;9.896;2022-10-24T00:21:02;4.78;;;1.98;;
1402;SDS011;696;48.546;9.896;2022-10-24T00:23:28;7.85;;;2.25;;
1402;SDS011;696;48.546;9.896;2022-10-24T00:25:53;9.40;;;2.10;;
1402;SDS011;696;48.546;9.896;2022-10-24T00:28:19;3.80;;;2.00;;
1402;SDS011;696;48.546;9.896;2022-10-24T00:30:49;9.68;;;1.80;;
1402;SDS011;696;48.546;9.896;2022-10-24T00:33:15;12.68;;;2.03;;
1402;SDS011;696;48.546;9.896;2022-10-24T00:35:40;7.85;;;1.88;;
1402;SDS011;696;48.546;9.896;2022-10-24T00:38:06;6.80;;;2.00;;
1402;SDS011;696;48.546;9.896;2022-10-24T00:40:31;4.82;;;1.75;;
1402;SDS011;696;48.546;9.896;2022-10-24T00:42:57;6.07;;;1.85;;
1402;SDS011;696;48.546;9.896;2022-10-24T00:45:56;6.07;;;2.20;;
1402;SDS011;696;48.546;9.896;2022-10-24T00:48:35;6.63;;;2.03;;
1402;SDS011;696;48.546;9.896;2022-10-24T00:51:20;5.80;;;2.00;;
1402;SDS011;696;48.546;9.896;2022-10-24T00:54:02;4.57;;;1.92;;
1402;SDS011;696;48.546;9.896;2022-10-24T00:56:39;3.03;;;1.67;;
1402;SDS011;696;48.546;9.896;2022-10-24T00:59:06;9.65;;;1.88;;
1402;SDS011;696;48.546;9.896;2022-10-24T01:01:33;9.07;;;2.40;;
1402;SDS011;696;48.546;9.896;2022-10-24T01:03:59;9.52;;;2.13;;
1402;SDS011;696;48.546;9.896;2022-10-24T01:11:31;7.00;;;2.33;;
1402;SDS011;696;48.546;9.896;2022-10-24T01:16:50;9.13;;;2.30;;
1402;SDS011;696;48.546;9.896;2022-10-24T01:22:01;14.43;;;2.30;;
1402;SDS011;696;48.546;9.896;2022-10-24T01:24:31;6.10;;;2.10;;
1402;SDS011;696;48.546;9.896;2022-10-24T01:30:21;6.30;;;2.13;;
1402;SDS011;696;48.546;9.896;2022-10-24T01:33:04;6.45;;;2.38;;
1402;SDS011;696;48.546;9.896;2022-10-24T01:43:47;10.48;;;2.13;;
1402;SDS011;696;48.546;9.896;2022-10-24T01:46:20;16.23;;;2.17;;
1402;SDS011;696;48.546;9.896;2022-10-24T01:48:48;5.75;;;2.08;;
1402;SDS011;696;48.546;9.896;2022-10-24T01:51:17;7.28;;;2.47;;
1402;SDS011;696;48.546;9.896;2022-10-24T01:53:45;11.68;;;2.40;;
1402;SDS011;696;48.546;9.896;2022-10-24T01:56:12;6.50;;;2.70;;
1402;SDS011;696;48.546;9.896;2022-10-24T01:58:37;19.95;;;2.33;;
1402;SDS011;696;48.546;9.896;2022-10-24T02:01:05;6.63;;;2.33;;
1402;SDS011;696;48.546;9.896;2022-10-24T02:03:33;4.82;;;2.40;;
1402;SDS011;696;48.546;9.896;2022-10-24T02:06:43;5.38;;;2.60;;
1402;SDS011;696;48.546;9.896;2022-10-24T02:08:58;12.13;;;2.77;;
1402;SDS011;696;48.546;9.896;2022-10-24T02:11:26;15.18;;;3.28;;
1402;SDS011;696;48.546;9.896;2022-10-24T02:16:35;8.45;;;2.67;;
1402;SDS011;696;48.546;9.896;2022-10-24T02:19:00;10.88;;;3.13;;
1402;SDS011;696;48.546;9.896;2022-10-24T02:21:37;8.55;;;2.92;;
1402;SDS011;696;48.546;9.896;2022-10-24T02:26:38;9.82;;;2.80;;
1402;SDS011;696;48.546;9.896;2022-10-24T02:29:34;6.00;;;2.40;;
1402;SDS011;696;48.546;9.896;2022-10-24T02:32:08;10.95;;;2.67;;
1402;SDS011;696;48.546;9.896;2022-10-24T02:34:38;9.73;;;2.75;;
1402;SDS011;696;48.546;9.896;2022-10-24T02:37:04;12.02;;;2.75;;
1402;SDS011;696;48.546;9.896;2022-10-24T02:39:30;5.75;;;3.03;;
1402;SDS011;696;48.546;9.896;2022-10-24T02:41:57;17.13;;;3.08;;
1402;SDS011;696;48.546;9.896;2022-10-24T02:44:23;9.32;;;2.95;;
1402;SDS011;696;48.546;9.896;2022-10-24T02:46:49;7.53;;;2.60;;
1402;SDS011;696;48.546;9.896;2022-10-24T02:49:17;12.77;;;3.38;;
1402;SDS011;696;48.546;9.896;2022-10-24T02:51:42;15.02;;;3.17;;
1402;SDS011;696;48.546;9.896;2022-10-24T02:54:09;9.05;;;3.05;;
1402;SDS011;696;48.546;9.896;2022-10-24T02:56:36;8.07;;;2.60;;
1402;SDS011;696;48.546;9.896;2022-10-24T02:59:04;12.20;;;2.78;;
1402;SDS011;696;48.546;9.896;2022-10-24T03:01:29;8.35;;;2.80;;
1402;SDS011;696;48.546;9.896;2022-10-24T03:03:54;17.77;;;3.03;;
1402;SDS011;696;48.546;9.896;2022-10-24T03:06:20;8.00;;;2.72;;
1402;SDS011;696;48.546;9.896;2022-10-24T03:08:45;9.27;;;2.80;;
1402;SDS011;696;48.546;9.896;2022-10-24T03:11:10;7.13;;;2.45;;
1402;SDS011;696;48.546;9.896;2022-10-24T03:13:36;13.55;;;3.47;;
1402;SDS011;696;48.546;9.896;2022-10-24T03:16:02;12.18;;;2.42;;
1402;SDS011;696;48.546;9.896;2022-10-24T03:18:28;8.73;;;3.13;;
1402;SDS011;696;48.546;9.896;2022-10-24T03:20:54;5.75;;;2.40;;
1402;SDS011;696;48.546;9.896;2022-10-24T03:23:19;21.63;;;3.17;;
1402;SDS011;696;48.546;9.896;2022-10-24T03:25:46;15.75;;;3.50;;
1402;SDS011;696;48.546;9.896;2022-10-24T03:28:11;12.57;;;3.00;;
1402;SDS011;696;48.546;9.896;2022-10-24T03:30:36;6.05;;;3.05;;
1402;SDS011;696;48.546;9.896;2022-10-24T03:33:02;14.02;;;3.30;;
1402;SDS011;696;48.546;9.896;2022-10-24T03:35:27;10.77;;;3.38;;
1402;SDS011;696;48.546;9.896;2022-10-24T03:37:52;9.63;;;3.30;;
1402;SDS011;696;48.546;9.896;2022-10-24T03:40:18;10.35;;;2.80;;
1402;SDS011;696;48.546;9.896;2022-10-24T03:42:43;6.55;;;2.85;;
1402;SDS011;696;48.546;9.896;2022-10-24T03:45:09;13.38;;;3.13;;
1402;SDS011;696;48.546;9.896;2022-10-24T03:47:35;10.32;;;3.80;;
1402;SDS011;696;48.546;9.896;2022-10-24T03:50:01;16.25;;;2.67;;
1402;SDS011;696;48.546;9.896;2022-10-24T03:52:26;9.38;;;3.85;;
1402;SDS011;696;48.546;9.896;2022-10-24T03:54:51;8.18;;;3.25;;
1402;SDS011;696;48.546;9.896;2022-10-24T03:57:17;18.42;;;3.90;;
1402;SDS011;696;48.546;9.896;2022-10-24T03:59:42;15.73;;;2.90;;
1402;SDS011;696;48.546;9.896;2022-10-24T04:02:07;17.42;;;10.70;;
1402;SDS011;696;48.546;9.896;2022-10-24T04:04:33;17.02;;;6.25;;
1402;SDS011;696;48.546;9.896;2022-10-24T04:06:58;12.13;;;4.65;;
1402;SDS011;696;48.546;9.896;2022-10-24T04:09:25;11.13;;;4.68;;
1402;SDS011;696;48.546;9.896;2022-10-24T04:11:51;11.45;;;3.85;;
1402;SDS011;696;48.546;9.896;2022-10-24T04:14:17;9.43;;;3.80;;
1402;SDS011;696;48.546;9.896;2022-10-24T04:16:44;11.90;;;3.00;;
1402;SDS011;696;48.546;9.896;2022-10-24T04:19:09;26.95;;;11.80;;
1402;SDS011;696;48.546;9.896;2022-10-24T04:21:35;8.50;;;3.63;;
1402;SDS011;696;48.546;9.896;2022-10-24T04:24:01;9.88;;;4.55;;
1402;SDS011;696;48.546;9.896;2022-10-24T04:26:26;12.63;;;5.10;;
1402;SDS011;696;48.546;9.896;2022-10-24T04:28:52;11.48;;;4.80;;
1402;SDS011;696;48.546;9.896;2022-10-24T04:31:17;15.57;;;6.32;;
1402;SDS011;696;48.546;9.896;2022-10-24T04:33:42;18.88;;;5.10;;
1402;SDS011;696;48.546;9.896;2022-10-24T04:36:08;20.95;;;3.83;;
1402;SDS011;696;48.546;9.896;2022-10-24T04:38:33;21.63;;;3.72;;
1402;SDS011;696;48.546;9.896;2022-10-24T04:40:59;17.23;;;4.18;;
1402;SDS011;696;48.546;9.896;2022-10-24T04:43:24;12.98;;;3.70;;
1402;SDS011;696;48.546;9.896;2022-10-24T04:45:50;8.48;;;3.55;;
1402;SDS011;696;48.546;9.896;2022-10-24T04:48:15;15.05;;;3.40;;
1402;SDS011;696;48.546;9.896;2022-10-24T04:50:41;9.82;;;3.03;;
1402;SDS011;696;48.546;9.896;2022-10-24T04:53:07;19.73;;;2.95;;
1402;SDS011;696;48.546;9.896;2022-10-24T04:55:33;6.60;;;2.85;;
1402;SDS011;696;48.546;9.896;2022-10-24T04:57:59;8.93;;;3.58;;
1402;SDS011;696;48.546;9.896;2022-10-24T05:00:24;12.77;;;3.30;;
1402;SDS011;696;48.546;9.896;2022-10-24T05:02:50;10.38;;;3.17;;
1402;SDS011;696;48.546;9.896;2022-10-24T05:05:15;11.30;;;3.33;;
1402;SDS011;696;48.546;9.896;2022-10-24T05:07:41;19.25;;;3.70;;
1402;SDS011;696;48.546;9.896;2022-10-24T05:10:07;12.02;;;3.65;;
1402;SDS011;696;48.546;9.896;2022-10-24T05:12:33;9.93;;;3.67;;
1402;SDS011;696;48.546;9.896;2022-10-24T05:14:58;13.40;;;3.63;;
1402;SDS011;696;48.546;9.896;2022-10-24T05:17:24;11.85;;;3.58;;
1402;SDS011;696;48.546;9.896;2022-10-24T05:19:49;7.40;;;2.90;;
1402;SDS011;696;48.546;9.896;2022-10-24T05:22:15;12.32;;;4.13;;
1402;SDS011;696;48.546;9.896;2022-10-24T05:24:40;11.18;;;3.17;;
1402;SDS011;696;48.546;9.896;2022-10-24T05:27:05;6.85;;;3.17;;
1402;SDS011;696;48.546;9.896;2022-10-24T05:29:31;8.82;;;2.90;;
1402;SDS011;696;48.546;9.896;2022-10-24T05:31:56;13.55;;;2.85;;
1402;SDS011;696;48.546;9.896;2022-10-24T05:34:22;11.25;;;3.53;;
1402;SDS011;696;48.546;9.896;2022-10-24T05:36:47;9.20;;;3.10;;
1402;SDS011;696;48.546;9.896;2022-10-24T05:39:12;6.32;;;3.03;;
1402;SDS011;696;48.546;9.896;2022-10-24T05:41:38;11.60;;;3.30;;
1402;SDS011;696;48.546;9.896;2022-10-24T05:44:03;15.95;;;3.17;;
1402;SDS011;696;48.546;9.896;2022-10-24T05:46:28;6.55;;;3.15;;
1402;SDS011;696;48.546;9.896;2022-10-24T05:48:54;8.40;;;3.00;;
1402;SDS011;696;48.546;9.896;2022-10-24T05:51:19;10.02;;;3.67;;
1402;SDS011;696;48.546;9.896;2022-10-24T05:53:45;8.90;;;3.50;;
1402;SDS011;696;48.546;9.896;2022-10-24T05:56:10;9.98;;;3.42;;
1402;SDS011;696;48.546;9.896;2022-10-24T05:58:35;16.67;;;3.25;;
1402;SDS011;696;48.546;9.896;2022-10-24T06:01:01;9.68;;;2.92;;
1402;SDS011;696;48.546;9.896;2022-10-24T06:03:26;12.20;;;4.53;;
1402;SDS011;696;48.546;9.896;2022-10-24T06:05:52;10.43;;;3.88;;
1402;SDS011;696;48.546;9.896;2022-10-24T06:08:18;10.40;;;4.00;;
1402;SDS011;696;48.546;9.896;2022-10-24T06:10:47;15.00;;;4.95;;
1402;SDS011;696;48.546;9.896;2022-10-24T06:13:13;14.75;;;5.10;;
1402;SDS011;696;48.546;9.896;2022-10-24T06:15:40;5.28;;;3.42;;
1402;SDS011;696;48.546;9.896;2022-10-24T06:18:06;12.95;;;3.80;;
1402;SDS011;696;48.546;9.896;2022-10-24T06:20:32;8.27;;;3.10;;
1402;SDS011;696;48.546;9.896;2022-10-24T06:22:57;8.88;;;3.83;;
1402;SDS011;696;48.546;9.896;2022-10-24T06:25:22;9.77;;;3.38;;
1402;SDS011;696;48.546;9.896;2022-10-24T06:27:48;8.57;;;3.20;;
1402;SDS011;696;48.546;9.896;2022-10-24T06:30:13;14.70;;;3.60;;
1402;SDS011;696;48.546;9.896;2022-10-24T06:32:39;13.13;;;3.47;;
1402;SDS011;696;48.546;9.896;2022-10-24T06:35:05;7.60;;;2.85;;
1402;SDS011;696;48.546;9.896;2022-10-24T06:37:30;7.50;;;3.38;;
1402;SDS011;696;48.546;9.896;2022-10-24T06:39:56;10.05;;;4.05;;
1402;SDS011;696;48.546;9.896;2022-10-24T06:42:21;12.68;;;4.07;;
1402;SDS011;696;48.546;9.896;2022-10-24T06:44:47;11.55;;;3.42;;
1402;SDS011;696;48.546;9.896;2022-10-24T06:47:12;8.32;;;3.65;;
1402;SDS011;696;48.546;9.896;2022-10-24T06:49:37;9.18;;;4.20;;
1402;SDS011;696;48.546;9.896;2022-10-24T06:52:03;12.82;;;5.97;;
1402;SDS011;696;48.546;9.896;2022-10-24T06:54:28;9.18;;;3.00;;
1402;SDS011;696;48.546;9.896;2022-10-24T06:56:54;8.60;;;4.07;;
1402;SDS011;696;48.546;9.896;2022-10-24T06:59:20;11.93;;;4.45;;
1402;SDS011;696;48.546;9.896;2022-10-24T07:01:45;9.40;;;3.25;;
1402;SDS011;696;48.546;9.896;2022-10-24T07:04:11;10.95;;;3.72;;
1402;SDS011;696;48.546;9.896;2022-10-24T07:06:36;25.58;;;3.70;;
1402;SDS011;696;48.546;9.896;2022-10-24T07:09:02;8.57;;;3.70;;
1402;SDS011;696;48.546;9.896;2022-10-24T07:11:28;10.55;;;3.17;;
1402;SDS011;696;48.546;9.896;2022-10-24T07:13:54;7.63;;;3.03;;
1402;SDS011;696;48.546;9.896;2022-10-24T07:16:19;12.48;;;3.33;;
1402;SDS011;696;48.546;9.896;2022-10-24T07:18:45;10.80;;;3.28;;
1402;SDS011;696;48.546;9.896;2022-10-24T07:21:14;13.40;;;3.88;;
1402;SDS011;696;48.546;9.896;2022-10-24T07:23:43;16.40;;;4.18;;
1402;SDS011;696;48.546;9.896;2022-10-24T07:26:12;8.15;;;3.70;;
1402;SDS011;696;48.546;9.896;2022-10-24T07:28:40;16.02;;;3.83;;
1402;SDS011;696;48.546;9.896;2022-10-24T07:31:07;10.60;;;3.35;;
1402;SDS011;696;48.546;9.896;2022-10-24T07:33:35;13.95;;;3.42;;
1402;SDS011;696;48.546;9.896;2022-10-24T07:36:01;7.43;;;2.80;;
1402;SDS011;696;48.546;9.896;2022-10-24T07:38:26;5.93;;;2.97;;
1402;SDS011;696;48.546;9.896;2022-10-24T07:40:51;8.77;;;3.00;;
1402;SDS011;696;48.546;9.896;2022-10-24T07:43:17;7.55;;;2.42;;
1402;SDS011;696;48.546;9.896;2022-10-24T07:45:43;7.13;;;2.95;;
1402;SDS011;696;48.546;9.896;2022-10-24T07:48:08;9.50;;;3.30;;
1402;SDS011;696;48.546;9.896;2022-10-24T07:50:39;37.70;;;3.53;;
1402;SDS011;696;48.546;9.896;2022-10-24T07:53:09;9.23;;;2.92;;
1402;SDS011;696;48.546;9.896;2022-10-24T07:55:39;7.57;;;3.03;;
1402;SDS011;696;48.546;9.896;2022-10-24T07:58:05;5.70;;;2.30;;
1402;SDS011;696;48.546;9.896;2022-10-24T08:00:30;6.63;;;2.53;;
1402;SDS011;696;48.546;9.896;2022-10-24T08:02:56;5.88;;;2.40;;
1402;SDS011;696;48.546;9.896;2022-10-24T08:05:21;10.82;;;2.60;;
1402;SDS011;696;48.546;9.896;2022-10-24T08:07:46;6.90;;;2.65;;
1402;SDS011;696;48.546;9.896;2022-10-24T08:10:12;8.18;;;2.85;;
1402;SDS011;696;48.546;9.896;2022-10-24T08:12:38;12.68;;;2.92;;
1402;SDS011;696;48.546;9.896;2022-10-24T08:15:03;14.10;;;3.15;;
1402;SDS011;696;48.546;9.896;2022-10-24T08:17:29;6.65;;;2.60;;
1402;SDS011;696;48.546;9.896;2022-10-24T08:19:55;8.02;;;2.50;;
1402;SDS011;696;48.546;9.896;2022-10-24T08:22:20;10.63;;;2.78;;
1402;SDS011;696;48.546;9.896;2022-10-24T08:24:45;7.38;;;3.40;;
1402;SDS011;696;48.546;9.896;2022-10-24T08:27:11;8.43;;;3.47;;
1402;SDS011;696;48.546;9.896;2022-10-24T08:29:36;23.25;;;6.93;;
1402;SDS011;696;48.546;9.896;2022-10-24T08:32:02;14.50;;;5.18;;
1402;SDS011;696;48.546;9.896;2022-10-24T08:34:28;8.82;;;5.22;;
1402;SDS011;696;48.546;9.896;2022-10-24T08:36:54;25.40;;;4.68;;
1402;SDS011;696;48.546;9.896;2022-10-24T08:39:19;12.98;;;7.05;;
1402;SDS011;696;48.546;9.896;2022-10-24T08:41:50;14.13;;;6.78;;
1402;SDS011;696;48.546;9.896;2022-10-24T08:44:22;14.68;;;7.72;;
1402;SDS011;696;48.546;9.896;2022-10-24T08:52:34;9.25;;;5.88;;
1402;SDS011;696;48.546;9.896;2022-10-24T08:55:25;10.57;;;5.75;;
1402;SDS011;696;48.546;9.896;2022-10-24T08:57:56;12.90;;;6.32;;
1402;SDS011;696;48.546;9.896;2022-10-24T09:00:27;13.15;;;6.00;;
1402;SDS011;696;48.546;9.896;2022-10-24T09:03:03;15.90;;;6.57;;
1402;SDS011;696;48.546;9.896;2022-10-24T09:05:40;12.98;;;6.35;;
1402;SDS011;696;48.546;9.896;2022-10-24T09:08:21;17.70;;;6.50;;
1402;SDS011;696;48.546;9.896;2022-10-24T09:13:17;12.60;;;6.75;;
1402;SDS011;696;48.546;9.896;2022-10-24T09:15:43;12.95;;;6.55;;
1402;SDS011;696;48.546;9.896;2022-10-24T09:18:14;11.93;;;5.80;;
1402;SDS011;696;48.546;9.896;2022-10-24T09:20:46;8.88;;;5.32;;
1402;SDS011;696;48.546;9.896;2022-10-24T09:23:12;9.65;;;6.00;;
1402;SDS011;696;48.546;9.896;2022-10-24T09:25:40;11.57;;;6.82;;
1402;SDS011;696;48.546;9.896;2022-10-24T09:28:07;12.35;;;5.50;;
1402;SDS011;696;48.546;9.896;2022-10-24T09:30:34;12.65;;;4.78;;
1402;SDS011;696;48.546;9.896;2022-10-24T09:35:56;10.43;;;4.75;;
1402;SDS011;696;48.546;9.896;2022-10-24T09:40:49;8.82;;;3.42;;
1402;SDS011;696;48.546;9.896;2022-10-24T09:43:17;9.90;;;3.60;;
1402;SDS011;696;48.546;9.896;2022-10-24T09:46:07;17.48;;;4.88;;
1402;SDS011;696;48.546;9.896;2022-10-24T09:48:35;10.60;;;4.55;;
1402;SDS011;696;48.546;9.896;2022-10-24T09:51:08;16.80;;;4.05;;
1402;SDS011;696;48.546;9.896;2022-10-24T09:53:57;12.85;;;4.30;;
1402;SDS011;696;48.546;9.896;2022-10-24T09:56:47;7.88;;;3.35;;
1402;SDS011;696;48.546;9.896;2022-10-24T09:59:32;10.07;;;4.63;;
1402;SDS011;696;48.546;9.896;2022-10-24T10:02:19;8.80;;;3.75;;
1402;SDS011;696;48.546;9.896;2022-10-24T10:04:55;6.28;;;3.78;;
1402;SDS011;696;48.546;9.896;2022-10-24T10:07:34;9.77;;;3.45;;
1402;SDS011;696;48.546;9.896;2022-10-24T10:12:46;8.85;;;2.90;;
1402;SDS011;696;48.546;9.896;2022-10-24T10:15:43;13.15;;;2.97;;
1402;SDS011;696;48.546;9.896;2022-10-24T10:23:28;5.00;;;2.97;;
1402;SDS011;696;48.546;9.896;2022-10-24T10:28:41;11.10;;;3.30;;
1402;SDS011;696;48.546;9.896;2022-10-24T10:31:12;4.90;;;2.60;;
1402;SDS011;696;48.546;9.896;2022-10-24T10:33:44;6.00;;;2.35;;
1402;SDS011;696;48.546;9.896;2022-10-24T10:38:50;13.45;;;3.08;;
1402;SDS011;696;48.546;9.896;2022-10-24T10:49:29;3.95;;;2.08;;
1402;SDS011;696;48.546;9.896;2022-10-24T10:51:57;7.57;;;1.88;;
1402;SDS011;696;48.546;9.896;2022-10-24T10:54:36;6.53;;;2.83;;
1402;SDS011;696;48.546;9.896;2022-10-24T10:57:14;12.80;;;7.25;;
1402;SDS011;696;48.546;9.896;2022-10-24T10:59:53;5.15;;;2.80;;
1402;SDS011;696;48.546;9.896;2022-10-24T11:10:26;9.52;;;2.05;;
1402;SDS011;696;48.546;9.896;2022-10-24T11:12:53;7.18;;;2.22;;
1402;SDS011;696;48.546;9.896;2022-10-24T11:15:27;4.07;;;1.75;;
1402;SDS011;696;48.546;9.896;2022-10-24T11:17:57;15.48;;;3.60;;
1402;SDS011;696;48.546;9.896;2022-10-24T11:20:25;11.05;;;4.85;;
1402;SDS011;696;48.546;9.896;2022-10-24T11:23:13;9.05;;;3.35;;
1402;SDS011;696;48.546;9.896;2022-10-24T11:25:50;6.95;;;2.40;;
1402;SDS011;696;48.546;9.896;2022-10-24T11:28:38;8.55;;;2.63;;
1402;SDS011;696;48.546;9.896;2022-10-24T11:31:26;9.60;;;3.03;;
1402;SDS011;696;48.546;9.896;2022-10-24T11:36:50;9.63;;;2.03;;
1402;SDS011;696;48.546;9.896;2022-10-24T11:39:26;3.83;;;2.38;;
1402;SDS011;696;48.546;9.896;2022-10-24T11:41:59;5.03;;;2.55;;
1402;SDS011;696;48.546;9.896;2022-10-24T11:47:00;12.10;;;4.30;;
1402;SDS011;696;48.546;9.896;2022-10-24T11:49:33;9.77;;;3.70;;
1402;SDS011;696;48.546;9.896;2022-10-24T11:55:12;5.13;;;3.45;;
1402;SDS011;696;48.546;9.896;2022-10-24T11:58:03;4.90;;;2.50;;
1402;SDS011;696;48.546;9.896;2022-10-24T12:00:34;7.45;;;3.17;;
1402;SDS011;696;48.546;9.896;2022-10-24T12:05:59;7.43;;;2.90;;
1402;SDS011;696;48.546;9.896;2022-10-24T12:11:51;4.43;;;2.85;;
1402;SDS011;696;48.546;9.896;2022-10-24T12:14:25;7.22;;;3.10;;
1402;SDS011;696;48.546;9.896;2022-10-24T12:19:38;3.83;;;1.77;;
1402;SDS011;696;48.546;9.896;2022-10-24T12:22:04;5.47;;;1.90;;
1402;SDS011;696;48.546;9.896;2022-10-24T12:24:30;3.25;;;2.10;;
1402;SDS011;696;48.546;9.896;2022-10-24T12:27:04;4.85;;;2.40;;
1402;SDS011;696;48.546;9.896;2022-10-24T12:29:31;3.60;;;2.10;;
1402;SDS011;696;48.546;9.896;2022-10-24T12:34:57;2.95;;;2.35;;
1402;SDS011;696;48.546;9.896;2022-10-24T12:39:50;9.70;;;3.17;;
1402;SDS011;696;48.546;9.896;2022-10-24T12:43:04;7.30;;;2.75;;
1402;SDS011;696;48.546;9.896;2022-10-24T12:47:39;6.53;;;3.40;;
1402;SDS011;696;48.546;9.896;2022-10-24T12:58:02;4.38;;;3.08;;
1402;SDS011;696;48.546;9.896;2022-10-24T13:00:29;4.53;;;3.25;;
1402;SDS011;696;48.546;9.896;2022-10-24T13:03:06;5.50;;;3.67;;
1402;SDS011;696;48.546;9.896;2022-10-24T13:14:18;5.78;;;4.43;;
1402;SDS011;696;48.546;9.896;2022-10-24T13:22:49;8.32;;;2.85;;
1402;SDS011;696;48.546;9.896;2022-10-24T13:36:15;5.20;;;2.03;;
1402;SDS011;696;48.546;9.896;2022-10-24T13:38:50;14.77;;;2.15;;
1402;SDS011;696;48.546;9.896;2022-10-24T13:41:27;3.88;;;1.40;;
1402;SDS011;696;48.546;9.896;2022-10-24T13:43:54;3.60;;;1.33;;
1402;SDS011;696;48.546;9.896;2022-10-24T13:46:31;2.15;;;1.23;;
1402;SDS011;696;48.546;9.896;2022-10-24T13:49:00;4.45;;;1.20;;
1402;SDS011;696;48.546;9.896;2022-10-24T13:54:05;3.20;;;1.52;;
1402;SDS011;696;48.546;9.896;2022-10-24T13:56:36;5.28;;;1.50;;
1402;SDS011;696;48.546;9.896;2022-10-24T13:59:03;5.32;;;1.58;;
1402;SDS011;696;48.546;9.896;2022-10-24T14:01:28;2.55;;;1.65;;
1402;SDS011;696;48.546;9.896;2022-10-24T14:03:55;2.42;;;1.30;;
1402;SDS011;696;48.546;9.896;2022-10-24T14:06:28;4.97;;;1.40;;
1402;SDS011;696;48.546;9.896;2022-10-24T14:11:22;1.52;;;1.05;;
1402;SDS011;696;48.546;9.896;2022-10-24T14:13:53;4.30;;;1.75;;
1402;SDS011;696;48.546;9.896;2022-10-24T14:16:27;4.47;;;1.38;;
1402;SDS011;696;48.546;9.896;2022-10-24T14:19:10;4.88;;;1.40;;
1402;SDS011;696;48.546;9.896;2022-10-24T14:21:41;5.03;;;1.50;;
1402;SDS011;696;48.546;9.896;2022-10-24T14:24:09;4.22;;;0.98;;
1402;SDS011;696;48.546;9.896;2022-10-24T14:26:39;9.70;;;1.38;;
1402;SDS011;696;48.546;9.896;2022-10-24T14:29:13;2.78;;;1.42;;
1402;SDS011;696;48.546;9.896;2022-10-24T14:31:45;2.88;;;1.17;;
1402;SDS011;696;48.546;9.896;2022-10-24T14:34:16;6.68;;;1.13;;
1402;SDS011;696;48.546;9.896;2022-10-24T14:36:43;5.93;;;1.40;;
1402;SDS011;696;48.546;9.896;2022-10-24T14:39:11;6.13;;;1.27;;
1402;SDS011;696;48.546;9.896;2022-10-24T14:41:40;2.25;;;1.30;;
1402;SDS011;696;48.546;9.896;2022-10-24T14:44:06;8.32;;;1.17;;
1402;SDS011;696;48.546;9.896;2022-10-24T14:46:36;1.83;;;1.13;;
1402;SDS011;696;48.546;9.896;2022-10-24T14:54:19;4.10;;;1.50;;
1402;SDS011;696;48.546;9.896;2022-10-24T14:56:45;15.10;;;1.67;;
1402;SDS011;696;48.546;9.896;2022-10-24T14:59:23;3.08;;;1.60;;
1402;SDS011;696;48.546;9.896;2022-10-24T15:01:54;4.65;;;1.45;;
1402;SDS011;696;48.546;9.896;2022-10-24T15:04:28;3.08;;;1.48;;
1402;SDS011;696;48.546;9.896;2022-10-24T15:06:55;8.90;;;1.50;;
1402;SDS011;696;48.546;9.896;2022-10-24T15:09:21;4.88;;;1.80;;
1402;SDS011;696;48.546;9.896;2022-10-24T15:11:48;3.70;;;1.55;;
1402;SDS011;696;48.546;9.896;2022-10-24T15:17:02;6.15;;;1.70;;
1402;SDS011;696;48.546;9.896;2022-10-24T15:19:29;4.88;;;1.58;;
1402;SDS011;696;48.546;9.896;2022-10-24T15:22:01;3.53;;;1.90;;
1402;SDS011;696;48.546;9.896;2022-10-24T15:24:26;6.60;;;2.28;;
1402;SDS011;696;48.546;9.896;2022-10-24T15:26:51;4.75;;;1.55;;
1402;SDS011;696;48.546;9.896;2022-10-24T15:29:21;4.72;;;2.35;;
1402;SDS011;696;48.546;9.896;2022-10-24T15:31:47;6.07;;;3.95;;
1402;SDS011;696;48.546;9.896;2022-10-24T15:34:18;5.13;;;1.70;;
1402;SDS011;696;48.546;9.896;2022-10-24T15:36:46;3.67;;;2.05;;
1402;SDS011;696;48.546;9.896;2022-10-24T15:39:13;4.72;;;1.50;;
1402;SDS011;696;48.546;9.896;2022-10-24T15:41:40;3.47;;;1.50;;
1402;SDS011;696;48.546;9.896;2022-10-24T15:44:12;4.97;;;1.83;;
1402;SDS011;696;48.546;9.896;2022-10-24T15:46:38;4.18;;;1.95;;
1402;SDS011;696;48.546;9.896;2022-10-24T15:49:04;2.88;;;1.95;;
1402;SDS011;696;48.546;9.896;2022-10-24T15:51:29;6.05;;;2.72;;
1402;SDS011;696;48.546;9.896;2022-10-24T15:53:55;6.38;;;2.08;;
1402;SDS011;696;48.546;9.896;2022-10-24T15:56:20;4.63;;;2.22;;
1402;SDS011;696;48.546;9.896;2022-10-24T15:58:48;5.63;;;2.38;;
1402;SDS011;696;48.546;9.896;2022-10-24T16:01:31;5.68;;;2.42;;
1402;SDS011;696;48.546;9.896;2022-10-24T16:04:08;7.82;;;2.38;;
1402;SDS011;696;48.546;9.896;2022-10-24T16:06:34;4.68;;;2.70;;
1402;SDS011;696;48.546;9.896;2022-10-24T16:09:00;7.47;;;1.77;;
1402;SDS011;696;48.546;9.896;2022-10-24T16:11:25;4.13;;;2.28;;
1402;SDS011;696;48.546;9.896;2022-10-24T16:13:51;3.38;;;1.92;;
1402;SDS011;696;48.546;9.896;2022-10-24T16:16:16;5.75;;;2.05;;
1402;SDS011;696;48.546;9.896;2022-10-24T16:18:42;6.97;;;2.28;;
1402;SDS011;696;48.546;9.896;2022-10-24T16:21:09;3.03;;;2.05;;
1402;SDS011;696;48.546;9.896;2022-10-24T16:23:38;8.77;;;2.15;;
1402;SDS011;696;48.546;9.896;2022-10-24T16:26:03;7.68;;;2.13;;
1402;SDS011;696;48.546;9.896;2022-10-24T16:28:28;5.78;;;2.38;;
1402;SDS011;696;48.546;9.896;2022-10-24T16:30:54;6.68;;;2.22;;
1402;SDS011;696;48.546;9.896;2022-10-24T16:33:19;6.18;;;2.72;;
1402;SDS011;696;48.546;9.896;2022-10-24T16:35:46;4.35;;;2.33;;
1402;SDS011;696;48.546;9.896;2022-10-24T16:38:12;5.72;;;2.30;;
1402;SDS011;696;48.546;9.896;2022-10-24T16:40:39;5.35;;;2.90;;
1402;SDS011;696;48.546;9.896;2022-10-24T16:43:08;7.00;;;1.95;;
1402;SDS011;696;48.546;9.896;2022-10-24T16:45:34;5.97;;;2.25;;
1402;SDS011;696;48.546;9.896;2022-10-24T16:47:59;5.32;;;2.35;;
1402;SDS011;696;48.546;9.896;2022-10-24T16:50:26;6.85;;;2.78;;
1402;SDS011;696;48.546;9.896;2022-10-24T16:52:53;6.38;;;2.72;;
1402;SDS011;696;48.546;9.896;2022-10-24T16:55:20;12.55;;;4.60;;
1402;SDS011;696;48.546;9.896;2022-10-24T16:57:45;8.18;;;4.78;;
1402;SDS011;696;48.546;9.896;2022-10-24T17:00:11;8.93;;;3.92;;
1402;SDS011;696;48.546;9.896;2022-10-24T17:02:41;11.07;;;4.47;;
1402;SDS011;696;48.546;9.896;2022-10-24T17:05:09;9.07;;;5.18;;
1402;SDS011;696;48.546;9.896;2022-10-24T17:07:34;21.27;;;6.78;;
1402;SDS011;696;48.546;9.896;2022-10-24T17:10:00;14.93;;;6.82;;
1402;SDS011;696;48.546;9.896;2022-10-24T17:12:25;11.75;;;6.28;;
1402;SDS011;696;48.546;9.896;2022-10-24T17:14:51;8.80;;;6.22;;
1402;SDS011;696;48.546;9.896;2022-10-24T17:17:16;23.67;;;9.52;;
1402;SDS011;696;48.546;9.896;2022-10-24T17:19:42;25.75;;;7.95;;
1402;SDS011;696;48.546;9.896;2022-10-24T17:22:08;12.73;;;6.75;;
1402;SDS011;696;48.546;9.896;2022-10-24T17:24:35;9.38;;;6.35;;
1402;SDS011;696;48.546;9.896;2022-10-24T17:27:00;11.18;;;6.88;;
1402;SDS011;696;48.546;9.896;2022-10-24T17:29:27;9.07;;;5.80;;
1402;SDS011;696;48.546;9.896;2022-10-24T17:31:54;17.58;;;7.85;;
1402;SDS011;696;48.546;9.896;2022-10-24T17:34:20;12.85;;;8.18;;
1402;SDS011;696;48.546;9.896;2022-10-24T17:36:48;33.53;;;13.65;;
1402;SDS011;696;48.546;9.896;2022-10-24T17:39:26;14.43;;;8.43;;
1402;SDS011;696;48.546;9.896;2022-10-24T17:41:54;15.35;;;9.38;;
1402;SDS011;696;48.546;9.896;2022-10-24T17:44:19;12.07;;;8.10;;
1402;SDS011;696;48.546;9.896;2022-10-24T17:46:45;11.15;;;8.00;;
1402;SDS011;696;48.546;9.896;2022-10-24T17:49:11;13.93;;;9.20;;
1402;SDS011;696;48.546;9.896;2022-10-24T17:51:38;18.48;;;8.63;;
1402;SDS011;696;48.546;9.896;2022-10-24T17:54:05;10.38;;;7.90;;
1402;SDS011;696;48.546;9.896;2022-10-24T17:56:33;11.10;;;7.40;;